Terminal Aerodrome Forecast
Issued by NWS

Current Version | Previous Version | Text Only | Print | Product List | Glossary Off
Versions: 1 2 3 4 5 6 7 8 9 10 11 12 13 14 15 16 17 18 19 20 21 22 23 24 25 26 27 28 29 30 31 32 33 34 35 36 37 38 39 40 41 42 43 44 45 46 47 48 49 50

000
FTUS41 KRNK 192328
TAFLWB
TAF
KLWB 192328Z 2000/2024 05003KT 6SM BR VCSH SCT020 BKN045
     FM200300 00000KT 4SM BR OVC025
     FM200600 13004KT 1SM -DZ BR BKN004 OVC012
      TEMPO 2009/2012 1/4SM FG VV004
     FM201400 16005KT P6SM SCT012 OVC025
     FM201800 19005KT P6SM VCSH SCT025 BKN050=

USA.gov is the U.S. government's official web portal to all federal, state and local government web resources and services.